Time;durP1;ratioP1;P1;durP2;ratioP2;P2;SDS_P1;SDS_P2;PMS_P1;PMS_P2;Temp;Humidity;BMP_temperature;BMP_pressure;BME280_temperature;BME280_humidity;BME280_pressure;Samples;Min_cycle;Max_cycle;Signal;HPM_P1;HPM_P2
2022/06/29 00:00:24;;;;;;;4.05;2.35;;;16.50;92.20;;;;;;5029444;28;20456;-47
2022/06/29 00:02:49;;;;;;;3.45;2.13;;;16.50;92.00;;;;;;5029486;28;20022;-47
2022/06/29 00:05:21;;;;;;;5.45;2.53;;;16.50;92.70;;;;;;5029996;28;20037;-46
2022/06/29 00:07:47;;;;;;;3.75;2.63;;;16.40;93.20;;;;;;5030674;28;20036;-48
2022/06/29 00:10:13;;;;;;;2.53;2.28;;;16.50;92.70;;;;;;5030112;28;20399;-47
2022/06/29 00:12:40;;;;;;;3.92;2.35;;;16.50;93.20;;;;;;5028802;28;20029;-47
2022/06/29 00:15:06;;;;;;;2.97;2.47;;;16.50;93.00;;;;;;5018049;28;20034;-47
2022/06/29 00:17:33;;;;;;;3.05;2.45;;;16.40;93.40;;;;;;5029779;28;20044;-46
2022/06/29 00:20:00;;;;;;;3.10;2.65;;;16.40;93.30;;;;;;5030665;28;20024;-47
2022/06/29 00:22:26;;;;;;;3.10;2.40;;;16.40;93.30;;;;;;5030420;28;20029;-50
2022/06/29 00:24:52;;;;;;;2.63;2.30;;;16.40;93.60;;;;;;5037497;28;20052;-47
2022/06/29 00:27:17;;;;;;;3.65;2.30;;;16.40;93.60;;;;;;5039714;28;20021;-47
2022/06/29 00:29:43;;;;;;;3.47;2.38;;;16.40;93.80;;;;;;5041755;28;20483;-47
2022/06/29 00:32:09;;;;;;;3.63;2.33;;;16.30;94.40;;;;;;5050003;28;20021;-47
2022/06/29 00:34:34;;;;;;;4.45;2.42;;;16.20;95.00;;;;;;5049456;28;20625;-48
2022/06/29 00:37:00;;;;;;;2.40;2.03;;;16.20;95.00;;;;;;5049957;28;20088;-47
2022/06/29 00:39:26;;;;;;;3.33;2.20;;;16.20;95.00;;;;;;5049666;28;20116;-48
2022/06/29 00:41:52;;;;;;;2.83;2.35;;;16.20;95.40;;;;;;5049683;28;20024;-51
2022/06/29 00:44:19;;;;;;;3.55;2.20;;;16.10;95.70;;;;;;5049209;28;20017;-48
2022/06/29 00:46:57;;;;;;;6.45;2.53;;;16.10;95.60;;;;;;5049741;28;20483;-46
2022/06/29 00:49:24;;;;;;;3.25;2.83;;;16.10;96.00;;;;;;5049730;28;20025;-46
2022/06/29 00:52:04;;;;;;;2.67;2.45;;;16.00;96.00;;;;;;5049562;28;20459;-47
2022/06/29 00:54:59;;;;;;;2.67;2.47;;;16.10;95.70;;;;;;5049131;28;20033;-47
2022/06/29 00:57:26;;;;;;;2.78;2.22;;;16.10;95.30;;;;;;5042959;28;20114;-48
2022/06/29 00:59:54;;;;;;;4.68;2.30;;;16.10;95.10;;;;;;5038910;28;20029;-51
2022/06/29 01:02:24;;;;;;;4.80;2.75;;;16.10;95.30;;;;;;5037419;28;20104;-47
2022/06/29 01:04:50;;;;;;;4.80;2.40;;;16.10;95.10;;;;;;5048384;28;20411;-48
2022/06/29 01:07:19;;;;;;;4.40;2.42;;;16.10;95.00;;;;;;5049239;28;20374;-48
2022/06/29 01:09:45;;;;;;;3.97;2.90;;;16.00;95.50;;;;;;5049147;28;20028;-48
2022/06/29 01:12:11;;;;;;;6.30;2.42;;;16.00;95.90;;;;;;5048783;28;20024;-47
2022/06/29 01:14:39;;;;;;;3.75;2.70;;;16.00;96.00;;;;;;5048314;28;20115;-46
2022/06/29 01:17:05;;;;;;;2.65;2.45;;;15.90;96.30;;;;;;5049126;28;20029;-47
2022/06/29 01:19:30;;;;;;;3.80;2.60;;;15.90;96.40;;;;;;5049122;28;20017;-47
2022/06/29 01:22:03;;;;;;;6.30;2.95;;;15.90;96.40;;;;;;5049163;28;20436;-46
2022/06/29 01:24:29;;;;;;;4.35;2.63;;;15.80;96.90;;;;;;5048727;28;20436;-49
2022/06/29 01:26:55;;;;;;;2.53;2.33;;;15.80;97.30;;;;;;5048997;28;20033;-47
2022/06/29 01:29:21;;;;;;;4.13;2.67;;;15.70;97.60;;;;;;5049069;28;20162;-49
2022/06/29 01:31:46;;;;;;;5.50;2.58;;;15.70;97.80;;;;;;5040367;28;20025;-47
2022/06/29 01:34:12;;;;;;;5.40;2.70;;;15.70;97.20;;;;;;5043060;28;20541;-47
2022/06/29 01:36:38;;;;;;;2.42;2.22;;;15.60;97.90;;;;;;5047911;28;20009;-48
2022/06/29 01:39:03;;;;;;;2.45;2.25;;;15.60;98.40;;;;;;5049518;28;20029;-47
2022/06/29 01:41:29;;;;;;;2.53;2.33;;;15.50;98.50;;;;;;5047358;28;20033;-47
2022/06/29 01:43:54;;;;;;;3.38;2.33;;;15.40;98.90;;;;;;5048630;28;20179;-47
2022/06/29 01:46:20;;;;;;;3.92;2.40;;;15.40;99.30;;;;;;5048526;28;20463;-46
2022/06/29 01:48:45;;;;;;;3.33;2.58;;;15.30;99.30;;;;;;5048785;28;20055;-48
2022/06/29 01:51:11;;;;;;;3.15;2.63;;;15.30;99.40;;;;;;5048835;28;20027;-46
2022/06/29 01:53:36;;;;;;;7.13;2.63;;;15.30;99.80;;;;;;5048662;28;20029;-46
2022/06/29 01:56:02;;;;;;;4.55;2.97;;;15.30;99.50;;;;;;5047962;28;20463;-47
2022/06/29 01:58:27;;;;;;;2.80;2.53;;;15.30;99.60;;;;;;5048903;28;20107;-49
2022/06/29 02:00:53;;;;;;;2.67;2.47;;;15.30;99.70;;;;;;5042642;28;20363;-47
2022/06/29 02:03:18;;;;;;;4.15;3.20;;;15.20;99.90;;;;;;5040433;28;20029;-47
2022/06/29 02:05:44;;;;;;;3.70;2.53;;;15.20;99.90;;;;;;5048335;28;20040;-48
2022/06/29 02:08:09;;;;;;;2.58;2.38;;;15.20;99.90;;;;;;5048703;28;20506;-47
2022/06/29 02:10:35;;;;;;;5.55;2.58;;;15.20;99.90;;;;;;5048217;28;20215;-47
2022/06/29 02:13:00;;;;;;;2.60;2.30;;;15.20;99.90;;;;;;5048479;28;20083;-47
2022/06/29 02:15:26;;;;;;;3.13;2.45;;;15.20;99.90;;;;;;5047855;28;20063;-47
2022/06/29 02:17:52;;;;;;;3.30;2.80;;;15.30;99.90;;;;;;5049042;28;20032;-48
2022/06/29 02:20:18;;;;;;;5.07;2.80;;;15.30;99.90;;;;;;5049673;28;20031;-48
2022/06/29 02:22:44;;;;;;;3.15;2.85;;;15.30;99.90;;;;;;5042672;28;20029;-49
2022/06/29 02:25:09;;;;;;;3.03;2.70;;;15.30;99.90;;;;;;5042480;28;20044;-47
2022/06/29 02:27:44;;;;;;;4.07;2.90;;;15.20;99.90;;;;;;5012559;28;20033;-48
2022/06/29 02:30:11;;;;;;;3.15;2.70;;;15.20;99.90;;;;;;5012581;28;20037;-47
2022/06/29 02:35:21;;;;;;;3.13;2.80;;;15.10;99.90;;;;;;5013038;28;20044;-47
2022/06/29 02:37:46;;;;;;;3.80;2.47;;;15.10;99.90;;;;;;5014158;28;20030;-47
2022/06/29 02:40:12;;;;;;;3.92;2.55;;;15.10;99.90;;;;;;5019641;28;20060;-49
2022/06/29 02:42:38;;;;;;;5.25;2.47;;;15.10;99.90;;;;;;5021756;28;20156;-50
2022/06/29 02:45:03;;;;;;;3.00;2.70;;;15.10;99.90;;;;;;5020476;28;20022;-47
2022/06/29 02:47:29;;;;;;;5.28;2.95;;;15.00;99.90;;;;;;5012937;28;20045;-46
2022/06/29 02:49:54;;;;;;;4.60;2.80;;;15.00;99.90;;;;;;5012238;28;20084;-47
2022/06/29 02:52:20;;;;;;;4.95;2.63;;;15.10;99.90;;;;;;5038887;28;20519;-49
2022/06/29 02:54:45;;;;;;;4.63;3.42;;;15.00;99.90;;;;;;5050005;28;20068;-47
2022/06/29 02:57:11;;;;;;;5.10;2.90;;;15.00;99.90;;;;;;5044592;28;20025;-48
2022/06/29 02:59:37;;;;;;;4.07;3.05;;;15.10;99.90;;;;;;5025687;28;20029;-47
2022/06/29 03:02:03;;;;;;;3.20;2.90;;;15.00;99.90;;;;;;5030552;28;20025;-47
2022/06/29 03:04:28;;;;;;;4.25;3.05;;;15.00;99.90;;;;;;5029894;28;20036;-48
2022/06/29 03:06:54;;;;;;;3.30;2.97;;;15.00;99.90;;;;;;5032228;28;20044;-47
2022/06/29 03:09:19;;;;;;;4.80;3.03;;;15.00;99.90;;;;;;5030960;28;20479;-47
2022/06/29 03:11:45;;;;;;;3.47;2.58;;;14.90;99.90;;;;;;5037744;28;20022;-47
2022/06/29 03:14:10;;;;;;;3.28;2.97;;;14.90;99.90;;;;;;5029455;28;20034;-46
2022/06/29 03:16:37;;;;;;;3.80;3.10;;;14.90;99.90;;;;;;5030513;28;20030;-47
2022/06/29 03:19:03;;;;;;;5.75;3.65;;;15.00;99.90;;;;;;5029127;28;20024;-47
2022/06/29 03:21:28;;;;;;;3.55;3.13;;;15.00;99.90;;;;;;5025715;28;20029;-48
2022/06/29 03:23:54;;;;;;;3.45;2.90;;;15.00;99.90;;;;;;5017202;28;20096;-49
2022/06/29 03:26:19;;;;;;;4.30;2.97;;;15.00;99.90;;;;;;5025091;28;20034;-46
2022/06/29 03:28:45;;;;;;;5.38;3.50;;;15.00;99.90;;;;;;5028643;28;20037;-47
2022/06/29 03:31:11;;;;;;;4.75;3.10;;;15.00;99.90;;;;;;5030184;28;20084;-47
2022/06/29 03:33:36;;;;;;;5.20;3.20;;;15.00;99.90;;;;;;5030212;28;20028;-48
2022/06/29 03:36:02;;;;;;;5.50;3.20;;;15.00;99.90;;;;;;5029492;28;20021;-47
2022/06/29 03:38:28;;;;;;;3.33;3.03;;;15.00;99.90;;;;;;5030078;28;20100;-47
2022/06/29 03:40:53;;;;;;;4.95;3.33;;;15.00;99.90;;;;;;5030157;28;20430;-47
2022/06/29 03:43:19;;;;;;;4.65;2.80;;;15.00;99.90;;;;;;5029995;28;20364;-47
2022/06/29 03:45:44;;;;;;;3.85;3.05;;;15.10;99.90;;;;;;5029547;28;20029;-49
2022/06/29 03:48:10;;;;;;;4.20;3.03;;;15.10;99.90;;;;;;5029855;28;20037;-49
2022/06/29 03:50:36;;;;;;;6.03;3.83;;;15.10;99.90;;;;;;5028885;28;20121;-48
2022/06/29 03:53:01;;;;;;;3.28;2.97;;;15.10;99.90;;;;;;5041755;28;20017;-48
2022/06/29 03:55:26;;;;;;;3.72;3.42;;;15.10;99.90;;;;;;5042205;28;20051;-50
2022/06/29 03:57:52;;;;;;;6.38;3.80;;;15.20;99.90;;;;;;5028273;28;20092;-47
2022/06/29 04:00:18;;;;;;;3.97;3.58;;;15.20;99.90;;;;;;5029826;28;20029;-48
2022/06/29 04:02:44;;;;;;;5.15;3.42;;;15.20;99.90;;;;;;5026959;28;20089;-49
2022/06/29 04:05:09;;;;;;;4.07;3.40;;;15.20;99.90;;;;;;5040368;28;20021;-50
2022/06/29 04:07:35;;;;;;;3.63;3.25;;;15.20;99.90;;;;;;5049394;28;20538;-50
2022/06/29 04:10:00;;;;;;;5.53;3.25;;;15.30;99.90;;;;;;5046113;28;20025;-47
2022/06/29 04:12:30;;;;;;;7.05;3.72;;;15.30;99.90;;;;;;5005930;28;1027907;-48
2022/06/29 04:14:56;;;;;;;3.60;3.30;;;15.30;99.90;;;;;;5048788;28;20025;-48
2022/06/29 04:17:22;;;;;;;3.80;3.25;;;15.30;99.90;;;;;;5050699;28;20108;-48
2022/06/29 04:19:48;;;;;;;6.18;3.65;;;15.40;99.90;;;;;;5050314;28;20104;-48
2022/06/29 04:22:13;;;;;;;4.85;3.55;;;15.40;99.90;;;;;;5050622;28;20548;-47
2022/06/29 04:24:39;;;;;;;4.07;3.30;;;15.40;99.90;;;;;;5047670;28;20040;-49
2022/06/29 04:27:04;;;;;;;5.82;3.10;;;15.50;99.90;;;;;;5040033;28;20104;-47
2022/06/29 04:29:30;;;;;;;4.38;3.70;;;15.50;99.90;;;;;;5050135;28;20163;-47
2022/06/29 04:31:55;;;;;;;3.97;3.10;;;15.50;99.90;;;;;;5049962;28;20036;-48
2022/06/29 04:34:21;;;;;;;5.07;3.88;;;15.50;99.90;;;;;;5048222;28;20498;-49
2022/06/29 04:36:46;;;;;;;6.50;3.63;;;15.50;99.90;;;;;;5048787;28;20074;-53
2022/06/29 04:39:12;;;;;;;4.63;4.05;;;15.60;99.90;;;;;;5049841;28;20027;-48
2022/06/29 04:41:37;;;;;;;4.93;4.30;;;15.60;99.90;;;;;;5043502;28;20029;-48
2022/06/29 04:44:03;;;;;;;4.90;3.90;;;15.60;99.90;;;;;;5041643;28;20025;-48
2022/06/29 04:46:29;;;;;;;4.68;3.58;;;15.60;99.90;;;;;;5046969;28;20059;-47
2022/06/29 04:49:00;;;;;;;4.78;3.80;;;15.60;99.90;;;;;;5040940;28;20487;-49
2022/06/29 04:51:27;;;;;;;4.72;4.10;;;15.60;99.90;;;;;;5048501;28;20040;-47
2022/06/29 04:53:54;;;;;;;7.43;4.22;;;15.70;99.90;;;;;;5037118;28;20071;-47
2022/06/29 04:56:20;;;;;;;4.30;3.90;;;15.70;99.90;;;;;;5019286;28;20017;-48
2022/06/29 04:58:46;;;;;;;4.93;3.85;;;15.80;99.90;;;;;;5024961;28;20018;-47
2022/06/29 05:01:12;;;;;;;9.48;3.75;;;15.90;99.90;;;;;;5020882;28;20048;-47
2022/06/29 05:03:37;;;;;;;5.18;4.00;;;15.90;99.90;;;;;;5031478;28;20029;-46
2022/06/29 05:06:03;;;;;;;6.88;3.60;;;15.90;99.90;;;;;;5041629;28;20021;-47
2022/06/29 05:08:28;;;;;;;5.63;3.67;;;16.00;99.90;;;;;;5044211;28;20032;-49
2022/06/29 05:10:54;;;;;;;6.20;3.78;;;16.00;99.90;;;;;;5039296;28;20037;-47
2022/06/29 05:13:19;;;;;;;4.25;3.63;;;16.10;99.90;;;;;;5047200;28;20086;-47
2022/06/29 05:15:45;;;;;;;5.03;3.92;;;16.20;99.90;;;;;;5039821;28;20044;-46
2022/06/29 05:18:10;;;;;;;4.90;3.70;;;16.20;99.90;;;;;;5042392;28;20025;-49
2022/06/29 05:20:36;;;;;;;4.55;3.50;;;16.30;99.90;;;;;;5038192;28;20045;-46
2022/06/29 05:23:01;;;;;;;3.70;3.30;;;16.40;99.90;;;;;;5030616;28;20029;-46
2022/06/29 05:25:27;;;;;;;6.85;3.88;;;16.50;99.90;;;;;;5034322;28;20470;-47
2022/06/29 05:27:52;;;;;;;7.03;4.38;;;16.50;99.90;;;;;;5027191;28;20040;-46
2022/06/29 05:30:18;;;;;;;4.93;4.15;;;16.60;99.90;;;;;;5026350;28;20048;-47
2022/06/29 05:32:43;;;;;;;6.35;3.90;;;16.70;99.90;;;;;;5032475;28;20298;-47
2022/06/29 05:35:10;;;;;;;5.97;3.42;;;16.80;99.90;;;;;;5032618;28;20028;-46
2022/06/29 05:37:36;;;;;;;3.85;3.55;;;16.80;99.90;;;;;;5033220;28;20025;-46
2022/06/29 05:40:02;;;;;;;6.40;4.07;;;16.90;99.90;;;;;;5027909;28;20014;-46
2022/06/29 05:42:28;;;;;;;5.97;4.10;;;17.10;99.90;;;;;;5026735;28;20491;-46
2022/06/29 05:44:54;;;;;;;5.70;3.70;;;17.20;99.90;;;;;;5031280;28;20111;-47
2022/06/29 05:47:19;;;;;;;3.67;3.03;;;17.30;99.90;;;;;;5035013;28;20025;-46
2022/06/29 05:49:45;;;;;;;4.85;4.25;;;17.30;99.90;;;;;;5038603;28;20104;-46
2022/06/29 05:52:10;;;;;;;9.23;4.35;;;17.40;99.90;;;;;;5035499;28;20029;-48
2022/06/29 05:54:36;;;;;;;4.55;3.70;;;17.40;99.90;;;;;;5036209;28;20023;-47
2022/06/29 05:57:02;;;;;;;6.50;3.38;;;17.40;99.90;;;;;;5030100;28;20070;-46
2022/06/29 05:59:27;;;;;;;6.22;3.78;;;17.50;99.90;;;;;;5034002;28;20025;-46
2022/06/29 06:01:53;;;;;;;5.40;4.25;;;17.50;99.90;;;;;;5037272;28;20159;-46
2022/06/29 06:04:18;;;;;;;7.45;3.90;;;17.50;99.90;;;;;;5038205;28;20029;-46
2022/06/29 06:06:44;;;;;;;8.50;3.70;;;17.60;99.90;;;;;;5043038;28;20291;-46
2022/06/29 06:09:10;;;;;;;5.82;3.58;;;17.60;99.90;;;;;;5035972;28;20380;-47
2022/06/29 06:11:36;;;;;;;3.83;3.47;;;17.70;99.90;;;;;;5033807;28;20044;-49
2022/06/29 06:14:02;;;;;;;5.75;3.63;;;17.80;99.90;;;;;;5037340;28;20021;-47
2022/06/29 06:16:27;;;;;;;5.00;3.53;;;17.80;99.90;;;;;;5033664;28;20709;-49
2022/06/29 06:18:53;;;;;;;6.30;3.78;;;17.90;99.90;;;;;;5033869;28;20029;-47
2022/06/29 06:21:18;;;;;;;3.72;3.30;;;18.10;99.90;;;;;;5027616;28;20037;-46
2022/06/29 06:23:44;;;;;;;6.53;4.03;;;18.10;99.90;;;;;;5021466;28;20861;-48
2022/06/29 06:26:10;;;;;;;3.42;3.13;;;18.30;99.90;;;;;;5031925;28;20483;-47
2022/06/29 06:28:35;;;;;;;7.30;3.53;;;18.40;99.90;;;;;;5016484;28;20040;-49
2022/06/29 06:31:01;;;;;;;6.13;3.97;;;18.50;99.90;;;;;;5023616;28;20036;-46
2022/06/29 06:33:26;;;;;;;3.90;3.50;;;18.60;99.90;;;;;;5027429;28;20026;-47
2022/06/29 06:35:52;;;;;;;6.30;3.20;;;18.80;99.90;;;;;;5025539;28;20434;-47
2022/06/29 06:38:18;;;;;;;7.55;3.60;;;18.90;99.90;;;;;;5025356;28;20026;-46
2022/06/29 06:43:28;;;;;;;4.85;3.65;;;19.20;99.90;;;;;;5021643;28;20041;-47
2022/06/29 06:45:54;;;;;;;10.68;4.68;;;19.40;99.90;;;;;;5022449;28;20025;-47
2022/06/29 06:48:20;;;;;;;6.85;3.38;;;19.50;99.90;;;;;;5028648;28;20061;-47
2022/06/29 06:50:45;;;;;;;6.45;3.40;;;19.70;99.90;;;;;;5020008;28;20144;-47
2022/06/29 06:53:11;;;;;;;7.72;3.60;;;19.80;99.90;;;;;;5022922;28;20483;-47
2022/06/29 06:55:38;;;;;;;7.03;3.95;;;20.00;99.90;;;;;;5023711;28;20030;-47
2022/06/29 06:58:03;;;;;;;6.00;3.65;;;20.20;99.90;;;;;;5026995;28;20163;-49
2022/06/29 07:00:29;;;;;;;5.78;3.40;;;20.30;99.90;;;;;;5023028;28;20104;-47
2022/06/29 07:02:55;;;;;;;4.15;2.92;;;20.50;99.90;;;;;;5027114;28;20024;-49
2022/06/29 07:05:20;;;;;;;4.47;3.50;;;20.70;99.90;;;;;;5020626;28;20189;-46
2022/06/29 07:07:46;;;;;;;5.05;3.10;;;20.90;99.90;;;;;;5028514;28;20034;-47
2022/06/29 07:10:12;;;;;;;4.57;2.80;;;21.10;99.90;;;;;;5024611;28;20506;-48
2022/06/29 07:12:37;;;;;;;6.68;3.15;;;21.20;99.90;;;;;;5029696;28;20049;-47
2022/06/29 07:15:04;;;;;;;5.30;2.95;;;21.40;99.90;;;;;;5022556;28;20029;-46
2022/06/29 07:17:29;;;;;;;4.05;2.70;;;21.60;99.90;;;;;;5020070;28;20034;-47
2022/06/29 07:19:55;;;;;;;4.47;3.05;;;21.70;99.90;;;;;;5031587;28;20071;-47
2022/06/29 07:22:20;;;;;;;2.72;2.40;;;21.80;99.90;;;;;;5025925;28;20490;-47
2022/06/29 07:24:46;;;;;;;4.53;2.95;;;21.90;99.60;;;;;;5027322;28;20120;-47
2022/06/29 07:27:11;;;;;;;4.50;2.70;;;22.00;99.00;;;;;;5029510;28;20036;-47
2022/06/29 07:29:37;;;;;;;5.60;2.83;;;22.10;98.90;;;;;;5019614;28;20104;-47
2022/06/29 07:32:03;;;;;;;3.72;3.33;;;22.20;98.90;;;;;;5027155;28;20112;-47
2022/06/29 07:34:29;;;;;;;4.13;3.30;;;22.40;98.30;;;;;;5029544;28;20503;-47
2022/06/29 07:36:54;;;;;;;4.93;3.33;;;22.40;98.50;;;;;;5024248;28;20108;-50
2022/06/29 07:39:20;;;;;;;5.78;3.22;;;22.50;98.10;;;;;;5021039;28;20037;-47
2022/06/29 07:41:45;;;;;;;6.95;2.90;;;22.70;98.10;;;;;;5019781;28;20290;-49
2022/06/29 07:44:11;;;;;;;5.75;3.17;;;22.90;97.90;;;;;;5029667;28;20060;-47
2022/06/29 07:46:37;;;;;;;5.20;3.00;;;23.10;97.40;;;;;;5029145;28;20441;-48
2022/06/29 07:49:02;;;;;;;7.30;3.47;;;23.20;97.10;;;;;;5025171;28;20483;-48
2022/06/29 07:51:28;;;;;;;4.25;3.42;;;23.20;96.70;;;;;;5030150;28;20077;-49
2022/06/29 07:53:53;;;;;;;3.78;3.17;;;23.50;96.70;;;;;;5021520;28;20048;-49
2022/06/29 07:56:19;;;;;;;3.95;3.03;;;23.70;96.00;;;;;;5019618;28;20433;-50
2022/06/29 07:58:45;;;;;;;6.57;3.40;;;23.80;96.00;;;;;;5029953;28;20093;-50
2022/06/29 08:01:10;;;;;;;6.60;2.95;;;24.10;95.90;;;;;;5031306;28;20483;-48
2022/06/29 08:03:36;;;;;;;5.18;3.45;;;24.40;95.10;;;;;;5019644;28;20025;-48
2022/06/29 08:06:02;;;;;;;4.90;3.10;;;24.40;94.40;;;;;;5020703;28;20022;-47
2022/06/29 08:08:28;;;;;;;4.43;3.47;;;24.80;94.20;;;;;;5018842;28;20487;-47
2022/06/29 08:10:53;;;;;;;5.22;3.70;;;24.90;93.30;;;;;;5028453;28;20029;-48
2022/06/29 08:13:19;;;;;;;3.20;2.88;;;25.10;92.90;;;;;;5021514;28;20029;-48
2022/06/29 08:15:45;;;;;;;4.07;3.65;;;25.40;92.60;;;;;;5017149;28;20030;-48
2022/06/29 08:18:15;;;;;;;6.93;2.95;;;25.90;92.00;;;;;;5020332;28;20026;-50
2022/06/29 08:20:42;;;;;;;6.00;2.80;;;26.30;91.60;;;;;;5022417;28;20029;-48
2022/06/29 08:23:09;;;;;;;5.65;2.50;;;26.90;90.20;;;;;;5030478;28;20035;-48
2022/06/29 08:25:34;;;;;;;3.88;2.20;;;27.20;87.80;;;;;;5024397;28;20519;-49
2022/06/29 08:28:01;;;;;;;5.43;2.50;;;27.60;84.50;;;;;;5025816;28;20025;-50
2022/06/29 08:30:27;;;;;;;8.30;2.60;;;27.50;84.00;;;;;;5028676;28;20025;-48
2022/06/29 08:32:52;;;;;;;3.67;2.30;;;27.60;81.10;;;;;;5021925;28;20033;-49
2022/06/29 08:35:18;;;;;;;3.08;2.28;;;27.80;80.50;;;;;;5029332;28;20392;-48
2022/06/29 08:37:44;;;;;;;4.10;2.35;;;27.90;79.40;;;;;;5018617;28;20022;-48
2022/06/29 08:40:13;;;;;;;3.03;1.83;;;28.10;78.70;;;;;;5020251;28;20098;-48
2022/06/29 08:42:39;;;;;;;2.20;2.00;;;28.50;76.00;;;;;;5026143;28;20053;-48
2022/06/29 08:45:09;;;;;;;3.88;2.03;;;28.70;75.30;;;;;;5030968;28;20527;-49
2022/06/29 08:47:35;;;;;;;4.72;2.00;;;28.70;73.90;;;;;;5020857;28;20510;-46
2022/06/29 08:50:05;;;;;;;2.92;2.15;;;28.70;73.70;;;;;;5018831;28;20049;-49
2022/06/29 08:52:33;;;;;;;2.55;2.35;;;28.50;73.00;;;;;;5020067;28;20024;-46
2022/06/29 08:55:01;;;;;;;4.07;2.50;;;28.20;73.60;;;;;;5022126;28;20033;-47
2022/06/29 08:57:27;;;;;;;6.93;2.53;;;28.10;72.90;;;;;;5026628;28;20013;-47
2022/06/29 08:59:54;;;;;;;4.05;2.17;;;28.10;72.90;;;;;;5027104;28;20507;-47
2022/06/29 09:02:19;;;;;;;2.80;2.60;;;27.90;73.40;;;;;;5030506;28;20026;-47
2022/06/29 09:04:45;;;;;;;4.40;2.30;;;27.70;73.80;;;;;;5026145;28;20029;-46
2022/06/29 09:07:11;;;;;;;4.55;2.40;;;27.20;75.10;;;;;;5030578;28;20029;-47
2022/06/29 09:10:03;;;;;;;5.40;2.72;;;26.90;76.50;;;;;;5021719;28;20565;-47
2022/06/29 09:12:31;;;;;;;3.45;2.50;;;26.80;76.70;;;;;;5025607;28;20117;-47
2022/06/29 09:14:58;;;;;;;3.70;2.83;;;26.70;77.30;;;;;;5032404;28;20425;-48
2022/06/29 09:17:24;;;;;;;4.50;2.45;;;26.60;77.60;;;;;;5027686;28;20499;-47
2022/06/29 09:19:53;;;;;;;3.80;2.45;;;26.60;77.70;;;;;;5025791;28;20032;-47
2022/06/29 09:22:18;;;;;;;7.85;2.83;;;26.90;76.10;;;;;;5019949;28;20018;-49
2022/06/29 09:24:45;;;;;;;3.25;2.47;;;26.90;75.50;;;;;;5020561;28;20044;-48
2022/06/29 09:27:11;;;;;;;4.93;2.55;;;26.90;74.70;;;;;;5026278;28;20359;-49
2022/06/29 09:29:39;;;;;;;3.15;2.67;;;27.00;73.00;;;;;;5023117;28;20513;-47
2022/06/29 09:32:05;;;;;;;4.90;3.00;;;26.70;74.00;;;;;;5020035;28;20274;-47
2022/06/29 09:34:34;;;;;;;3.60;3.08;;;26.80;73.70;;;;;;5018330;28;20157;-47
2022/06/29 09:37:01;;;;;;;6.70;3.17;;;26.60;74.50;;;;;;5020425;28;20030;-47
2022/06/29 09:39:32;;;;;;;2.72;2.53;;;26.70;75.00;;;;;;5026670;28;20025;-47
2022/06/29 09:41:57;;;;;;;;;;;26.80;75.30;;;;;;5022128;28;20283;-48
2022/06/29 09:44:23;;;;;;;3.78;2.90;;;27.20;74.80;;;;;;5023383;28;20003;-47
2022/06/29 09:46:49;;;;;;;3.90;2.90;;;28.10;74.20;;;;;;5015800;28;20156;-47
2022/06/29 09:49:17;;;;;;;4.43;2.25;;;29.10;70.70;;;;;;5020509;28;20120;-48
2022/06/29 09:51:45;;;;;;;3.75;2.83;;;29.80;69.20;;;;;;5019487;28;20018;-47
2022/06/29 09:54:11;;;;;;;4.28;2.20;;;30.30;69.30;;;;;;5025687;28;20120;-50
2022/06/29 09:56:50;;;;;;;5.53;2.50;;;30.30;66.30;;;;;;5033949;28;20117;-51
2022/06/29 10:05:16;;;;;;;3.05;2.13;;;31.50;62.10;;;;;;5032491;28;20390;-48
2022/06/29 10:07:46;;;;;;;2.08;1.90;;;32.50;60.20;;;;;;5037288;28;20043;-48
2022/06/29 10:10:14;;;;;;;4.20;2.10;;;32.70;58.10;;;;;;5042184;28;20541;-47
2022/06/29 10:16:00;;;;;;;4.80;2.40;;;32.20;58.10;;;;;;5028472;28;20051;-48
2022/06/29 10:18:45;;;;;;;2.20;1.95;;;31.30;59.50;;;;;;5027069;28;20025;-48
2022/06/29 10:21:31;;;;;;;3.90;2.10;;;30.30;61.20;;;;;;5037871;28;20032;-49
2022/06/29 10:23:59;;;;;;;5.30;2.35;;;29.50;62.30;;;;;;5035268;28;20102;-49
2022/06/29 10:26:28;;;;;;;4.40;1.98;;;28.70;63.20;;;;;;5026568;28;20503;-50
2022/06/29 10:28:54;;;;;;;6.80;2.13;;;28.00;62.90;;;;;;5027587;28;20033;-48
2022/06/29 10:31:52;;;;;;;1.98;1.75;;;27.50;63.40;;;;;;5028386;28;20033;-48
2022/06/29 10:36:59;;;;;;;2.45;1.70;;;26.50;64.60;;;;;;5028400;28;20060;-48
2022/06/29 10:39:25;;;;;;;4.50;1.92;;;26.60;66.00;;;;;;5026440;28;20021;-48
2022/06/29 10:44:59;;;;;;;2.10;1.90;;;26.40;66.80;;;;;;5029282;28;20048;-47
2022/06/29 10:47:25;;;;;;;4.93;1.88;;;26.50;67.30;;;;;;5025380;28;20499;-47
2022/06/29 10:50:20;;;;;;;4.38;1.73;;;26.40;66.50;;;;;;5026235;28;20365;-47
2022/06/29 10:52:50;;;;;;;3.22;1.73;;;26.30;67.20;;;;;;5042506;28;20120;-47
2022/06/29 10:55:17;;;;;;;3.05;2.10;;;26.70;66.10;;;;;;5021146;28;20025;-47
2022/06/29 10:57:45;;;;;;;6.53;2.10;;;27.20;65.50;;;;;;5026347;28;20025;-47
2022/06/29 11:00:26;;;;;;;2.30;1.50;;;27.50;64.50;;;;;;5041106;28;20024;-47
2022/06/29 11:02:52;;;;;;;5.18;1.80;;;28.40;61.20;;;;;;5033433;28;20260;-46
2022/06/29 11:05:18;;;;;;;8.15;6.80;;;28.80;59.40;;;;;;5029175;28;20013;-47
2022/06/29 11:13:26;;;;;;;1.50;1.30;;;29.60;57.90;;;;;;5037163;28;20091;-51
2022/06/29 11:15:54;;;;;;;1.52;1.30;;;29.30;57.20;;;;;;5036200;28;20085;-49
2022/06/29 11:18:27;;;;;;;2.78;1.40;;;29.80;57.60;;;;;;5038703;28;20009;-48
2022/06/29 11:20:53;;;;;;;7.50;1.42;;;30.70;55.70;;;;;;5050887;28;20087;-47
2022/06/29 11:23:29;;;;;;;1.85;1.60;;;31.00;55.30;;;;;;5037796;28;20040;-48
2022/06/29 11:25:55;;;;;;;1.50;1.40;;;31.50;54.10;;;;;;5018630;28;20107;-47
2022/06/29 11:28:28;;;;;;;1.50;1.40;;;31.50;53.50;;;;;;5029533;28;20040;-49
2022/06/29 11:31:01;;;;;;;4.60;1.58;;;31.30;54.90;;;;;;5022907;28;20021;-49
2022/06/29 11:33:29;;;;;;;2.65;1.65;;;30.70;55.00;;;;;;5019282;28;20054;-47
2022/06/29 11:35:55;;;;;;;4.93;2.03;;;30.20;55.70;;;;;;5025629;28;20041;-48
2022/06/29 11:38:28;;;;;;;2.65;1.95;;;30.00;56.70;;;;;;5020967;28;20108;-48
2022/06/29 11:40:56;;;;;;;4.60;2.50;;;30.00;57.80;;;;;;5013780;28;20030;-49
2022/06/29 11:43:23;;;;;;;3.60;1.95;;;29.70;57.20;;;;;;5032071;28;20183;-49
2022/06/29 11:45:54;;;;;;;4.50;2.10;;;29.40;57.40;;;;;;5040997;28;20025;-47
2022/06/29 11:48:27;;;;;;;2.83;1.77;;;29.30;57.30;;;;;;5039529;28;20041;-50
2022/06/29 11:50:56;;;;;;;3.22;1.65;;;29.30;55.40;;;;;;5041474;28;20024;-48
2022/06/29 11:53:48;;;;;;;2.90;1.47;;;29.20;55.60;;;;;;5030536;28;20125;-49
2022/06/29 11:56:15;;;;;;;1.65;1.55;;;28.90;55.30;;;;;;5037878;28;20261;-50
2022/06/29 11:58:54;;;;;;;2.22;1.70;;;28.70;55.10;;;;;;5031142;28;20026;-51
2022/06/29 12:01:21;;;;;;;2.05;1.80;;;28.50;56.00;;;;;;5033609;28;20443;-48
2022/06/29 12:03:52;;;;;;;4.22;1.90;;;28.40;56.40;;;;;;5038998;28;20079;-50
2022/06/29 12:06:19;;;;;;;4.60;1.95;;;28.00;56.70;;;;;;5037641;28;20021;-48
2022/06/29 12:08:46;;;;;;;3.28;1.65;;;27.90;58.50;;;;;;5029666;28;20514;-47
2022/06/29 12:11:12;;;;;;;2.50;1.88;;;27.80;57.80;;;;;;5042642;28;20035;-48
2022/06/29 12:13:37;;;;;;;2.95;1.90;;;27.70;58.50;;;;;;5038678;28;20028;-47
2022/06/29 12:16:03;;;;;;;6.25;1.77;;;27.60;58.60;;;;;;5037058;28;20021;-47
2022/06/29 12:18:29;;;;;;;4.13;1.80;;;27.40;59.40;;;;;;5037122;28;20022;-47
2022/06/29 12:20:54;;;;;;;4.70;2.45;;;27.30;59.30;;;;;;5025360;28;20044;-47
2022/06/29 12:23:19;;;;;;;4.13;2.20;;;27.30;60.00;;;;;;5026121;28;20037;-47
2022/06/29 12:25:45;;;;;;;2.78;2.10;;;27.40;60.30;;;;;;5027868;28;20030;-47
2022/06/29 12:28:11;;;;;;;3.72;2.42;;;27.20;60.30;;;;;;5028505;28;20426;-46
2022/06/29 12:30:38;;;;;;;2.30;2.08;;;27.20;60.20;;;;;;5037293;28;20435;-47
2022/06/29 12:33:04;;;;;;;3.50;1.90;;;27.10;60.20;;;;;;5033890;28;20502;-46
2022/06/29 12:35:30;;;;;;;3.80;2.45;;;27.10;61.10;;;;;;5038254;28;20474;-46
2022/06/29 12:37:57;;;;;;;2.97;2.50;;;26.70;62.70;;;;;;5041276;28;20025;-47
2022/06/29 12:40:26;;;;;;;5.68;2.80;;;26.60;62.80;;;;;;5049413;28;20258;-47
2022/06/29 12:42:52;;;;;;;4.57;2.45;;;26.70;63.20;;;;;;5040997;28;20009;-47
2022/06/29 12:45:18;;;;;;;3.55;2.03;;;26.40;64.30;;;;;;5036740;28;20108;-47
2022/06/29 12:47:44;;;;;;;3.00;2.17;;;26.70;64.50;;;;;;5046897;28;20040;-47
2022/06/29 12:50:10;;;;;;;2.53;2.33;;;26.80;63.90;;;;;;5041648;28;20021;-47
2022/06/29 12:52:40;;;;;;;5.22;2.45;;;26.50;64.10;;;;;;5018383;28;20061;-47
2022/06/29 12:55:08;;;;;;;4.78;2.17;;;26.60;65.10;;;;;;5036249;28;20022;-47
2022/06/29 12:57:33;;;;;;;6.45;2.22;;;26.70;64.60;;;;;;5035003;28;20308;-47
2022/06/29 12:59:59;;;;;;;2.50;2.30;;;26.70;65.00;;;;;;5029437;28;20030;-47
2022/06/29 13:02:25;;;;;;;6.10;2.67;;;26.60;65.10;;;;;;5027532;28;20038;-47
2022/06/29 13:04:50;;;;;;;2.53;2.30;;;26.60;65.20;;;;;;5039244;28;20029;-47
2022/06/29 13:07:16;;;;;;;4.68;2.50;;;26.70;66.20;;;;;;5048895;28;20021;-47
2022/06/29 13:09:41;;;;;;;5.43;2.30;;;26.80;65.20;;;;;;5049043;28;20028;-47
2022/06/29 13:12:07;;;;;;;4.72;2.42;;;26.80;65.00;;;;;;5043475;28;20056;-47